createdAt,value
2023-01-19T00:00:35.523Z,100542.28
2023-01-19T00:01:38.866Z,100549.69
2023-01-19T00:02:43.543Z,100550.81
2023-01-19T00:03:47.019Z,100544.97
2023-01-19T00:04:50.330Z,100544.53
2023-01-19T00:05:55.450Z,100557.69
2023-01-19T00:06:59.368Z,100559.78
2023-01-19T00:08:14.801Z,100566.09
2023-01-19T00:09:18.295Z,100573.59
2023-01-19T00:10:20.725Z,100576.75
2023-01-19T00:11:24.207Z,100571.81
2023-01-19T00:12:26.822Z,100572.78
2023-01-19T00:13:30.506Z,100574.63
2023-01-19T00:14:34.068Z,100579.28
2023-01-19T00:15:36.903Z,100571.69
2023-01-19T00:16:40.536Z,100566.13
2023-01-19T00:17:42.798Z,100576.22
2023-01-19T00:18:46.218Z,100564.09
2023-01-19T00:19:48.637Z,100567.88
2023-01-19T00:20:52.297Z,100566.28
2023-01-19T00:21:56.699Z,100565.66
2023-01-19T00:23:01.044Z,100557.94
2023-01-19T00:24:04.975Z,100554.97
2023-01-19T00:25:08.432Z,100559.31
2023-01-19T00:26:12.269Z,100563.72
2023-01-19T00:27:15.578Z,100571.66
2023-01-19T00:28:19.216Z,100567.03
2023-01-19T00:29:22.428Z,100571.25
2023-01-19T00:30:24.686Z,100571.00
2023-01-19T00:31:30.107Z,100575.03
2023-01-19T00:32:33.121Z,100575.81
2023-01-19T00:33:36.453Z,100581.97
2023-01-19T00:34:49.431Z,100580.78
2023-01-19T00:35:55.020Z,100580.31
2023-01-19T00:37:02.153Z,100580.84
2023-01-19T00:38:05.821Z,100576.56
2023-01-19T00:39:08.268Z,100570.50
2023-01-19T00:40:12.967Z,100569.59
2023-01-19T00:41:15.498Z,100570.13
2023-01-19T00:42:36.448Z,100568.09
2023-01-19T00:43:39.959Z,100570.38
2023-01-19T00:44:42.858Z,100575.47
2023-01-19T00:45:47.200Z,100575.84
2023-01-19T00:46:49.757Z,100569.84
2023-01-19T00:47:57.030Z,100572.00
2023-01-19T00:48:59.325Z,100574.63
2023-01-19T00:50:02.678Z,100575.88
2023-01-19T00:51:06.654Z,100578.19
2023-01-19T00:52:10.990Z,100572.41
2023-01-19T00:53:14.548Z,100577.59
2023-01-19T00:54:17.290Z,100575.94
2023-01-19T00:55:21.979Z,100585.28
2023-01-19T00:56:24.549Z,100584.00
2023-01-19T00:57:29.691Z,100589.41
2023-01-19T00:58:33.014Z,100593.56
2023-01-19T00:59:35.529Z,100593.34
2023-01-19T01:00:38.971Z,100588.41
2023-01-19T01:01:45.157Z,100596.63
2023-01-19T01:02:51.639Z,100599.47
2023-01-19T01:03:54.168Z,100610.22
2023-01-19T01:04:57.478Z,100609.31
2023-01-19T01:06:00.143Z,100608.50
2023-01-19T01:07:03.789Z,100612.94
2023-01-19T01:08:07.707Z,100608.59
2023-01-19T01:09:13.005Z,100609.47
2023-01-19T01:10:17.617Z,100612.75
2023-01-19T01:11:21.358Z,100612.22
2023-01-19T01:12:24.197Z,100612.59
2023-01-19T01:13:28.331Z,100608.47
2023-01-19T01:14:31.158Z,100617.38
2023-01-19T01:15:34.763Z,100619.72
2023-01-19T01:16:37.226Z,100619.00
2023-01-19T01:17:46.745Z,100620.06
2023-01-19T01:18:49.053Z,100619.19
2023-01-19T01:19:52.581Z,100621.66
2023-01-19T01:21:01.921Z,100626.94
2023-01-19T01:22:05.968Z,100621.09
2023-01-19T01:23:10.399Z,100625.91
2023-01-19T01:24:14.263Z,100618.94
2023-01-19T01:25:18.091Z,100620.06
2023-01-19T01:26:21.381Z,100623.25
2023-01-19T01:27:23.596Z,100630.13
2023-01-19T01:28:26.982Z,100627.41
2023-01-19T01:29:29.666Z,100632.94
2023-01-19T01:30:33.705Z,100635.59
2023-01-19T01:31:35.999Z,100640.84
2023-01-19T01:32:39.317Z,100653.00
2023-01-19T01:33:42.001Z,100650.59
2023-01-19T01:34:45.532Z,100653.72
2023-01-19T01:35:49.155Z,100653.53
2023-01-19T01:36:52.857Z,100659.16
2023-01-19T01:37:58.938Z,100658.53
2023-01-19T01:39:04.035Z,100660.38
2023-01-19T01:40:07.985Z,100652.97
2023-01-19T01:41:11.447Z,100660.16
2023-01-19T01:42:17.829Z,100659.56
2023-01-19T01:43:21.819Z,100659.94
2023-01-19T01:44:51.615Z,100664.97
2023-01-19T01:45:55.560Z,100661.78
2023-01-19T01:46:58.563Z,100667.56
2023-01-19T01:48:07.558Z,100669.53
2023-01-19T01:49:14.659Z,100669.13
2023-01-19T01:50:22.662Z,100672.69
2023-01-19T01:51:29.872Z,100674.28
2023-01-19T01:52:34.553Z,100673.72
2023-01-19T01:53:39.812Z,100675.28
2023-01-19T01:54:44.271Z,100669.44
2023-01-19T01:55:50.877Z,100668.94
2023-01-19T01:56:57.305Z,100671.13
2023-01-19T01:58:05.151Z,100667.53
2023-01-19T01:59:13.399Z,100664.25
2023-01-19T02:00:17.808Z,100668.53
2023-01-19T02:01:38.972Z,100674.69
2023-01-19T02:02:55.232Z,100671.94
2023-01-19T02:03:58.801Z,100667.16
2023-01-19T02:05:06.118Z,100661.56
2023-01-19T02:06:10.002Z,100665.53
2023-01-19T02:07:33.584Z,100662.34
2023-01-19T02:08:59.425Z,100664.53
2023-01-19T02:10:21.410Z,100661.56
2023-01-19T02:11:42.402Z,100666.34
2023-01-19T02:13:03.703Z,100669.91
2023-01-19T02:14:07.893Z,100671.47
2023-01-19T02:15:18.566Z,100680.88
2023-01-19T02:16:22.324Z,100684.50
2023-01-19T02:17:25.057Z,100686.66
2023-01-19T02:18:31.698Z,100684.88
2023-01-19T02:19:41.137Z,100685.47
2023-01-19T02:20:51.382Z,100683.28
2023-01-19T02:21:59.936Z,100677.50
2023-01-19T02:23:08.241Z,100683.88
2023-01-19T02:24:12.131Z,100689.81
2023-01-19T02:25:16.282Z,100690.91
2023-01-19T02:26:22.211Z,100700.16
2023-01-19T02:27:25.580Z,100699.72
2023-01-19T02:28:29.740Z,100699.75
2023-01-19T02:29:34.992Z,100693.59
2023-01-19T02:30:41.223Z,100701.44
2023-01-19T02:31:45.358Z,100700.06
2023-01-19T02:32:48.202Z,100701.81
2023-01-19T02:33:52.141Z,100706.13
2023-01-19T02:34:55.498Z,100710.91
2023-01-19T02:35:59.537Z,100704.78
2023-01-19T02:37:06.838Z,100712.38
2023-01-19T02:38:12.187Z,100717.13
2023-01-19T02:39:19.607Z,100715.59
2023-01-19T02:40:25.145Z,100725.66
2023-01-19T02:41:31.279Z,100733.69
2023-01-19T02:42:38.429Z,100726.50
2023-01-19T02:43:43.033Z,100728.50
2023-01-19T02:44:50.230Z,100724.53
2023-01-19T02:45:52.976Z,100731.56
2023-01-19T02:46:56.656Z,100724.16
2023-01-19T02:47:59.169Z,100728.28
2023-01-19T02:49:02.753Z,100723.50
2023-01-19T02:50:06.226Z,100730.78
2023-01-19T02:51:15.630Z,100732.47
2023-01-19T02:52:18.839Z,100730.44
2023-01-19T02:54:04.817Z,100731.44
2023-01-19T02:55:18.262Z,100733.03
2023-01-19T02:57:03.196Z,100739.63
2023-01-19T02:58:12.069Z,100742.84
2023-01-19T02:59:23.698Z,100731.53
2023-01-19T03:00:36.934Z,100733.53
2023-01-19T03:01:54.258Z,100731.75
2023-01-19T03:03:13.081Z,100729.75
2023-01-19T03:04:27.615Z,100739.53
2023-01-19T03:05:43.244Z,100740.69
2023-01-19T03:06:49.598Z,100741.28
2023-01-19T03:08:03.928Z,100731.13
2023-01-19T03:09:14.100Z,100733.72
2023-01-19T03:10:27.935Z,100727.91
2023-01-19T03:11:35.298Z,100739.72
2023-01-19T03:12:44.034Z,100745.50
2023-01-19T03:13:52.737Z,100735.34
2023-01-19T03:15:02.262Z,100729.72
2023-01-19T03:16:09.488Z,100716.38
2023-01-19T03:17:13.931Z,100721.13
2023-01-19T03:18:20.432Z,100720.94
2023-01-19T03:19:28.353Z,100722.97
2023-01-19T03:20:30.826Z,100725.75
2023-01-19T03:21:37.134Z,100730.94
2023-01-19T03:22:39.960Z,100728.34
2023-01-19T03:23:47.510Z,100728.75
2023-01-19T03:24:53.724Z,100729.56
2023-01-19T03:26:01.813Z,100722.16
2023-01-19T03:27:11.918Z,100722.94
2023-01-19T03:28:16.488Z,100728.72
2023-01-19T03:29:20.030Z,100724.53
2023-01-19T03:30:27.689Z,100732.31
2023-01-19T03:31:32.300Z,100719.75
2023-01-19T03:32:39.990Z,100728.94
2023-01-19T03:33:46.758Z,100737.09
2023-01-19T03:34:52.505Z,100733.09
2023-01-19T03:36:03.628Z,100744.47
2023-01-19T03:37:09.385Z,100745.63
2023-01-19T03:38:16.839Z,100742.66
2023-01-19T03:39:24.233Z,100740.03
2023-01-19T03:40:30.846Z,100738.88
2023-01-19T03:41:37.635Z,100741.56
2023-01-19T03:42:42.362Z,100736.94
2023-01-19T03:43:48.107Z,100736.91
2023-01-19T03:44:55.513Z,100734.31
2023-01-19T03:45:58.298Z,100730.34
2023-01-19T03:47:04.521Z,100738.50
2023-01-19T03:48:07.907Z,100731.41
2023-01-19T03:49:11.347Z,100734.97
2023-01-19T03:50:24.458Z,100736.97
2023-01-19T03:51:28.603Z,100734.84
2023-01-19T03:52:33.660Z,100728.31
2023-01-19T03:53:37.024Z,100731.81
2023-01-19T03:54:41.001Z,100727.06
2023-01-19T03:55:48.317Z,100729.28
2023-01-19T03:56:52.580Z,100730.47
2023-01-19T03:57:56.339Z,100736.09
2023-01-19T03:58:58.623Z,100739.09
2023-01-19T04:00:02.189Z,100724.50
2023-01-19T04:01:04.908Z,100738.47
2023-01-19T04:02:08.269Z,100731.31
2023-01-19T04:03:14.474Z,100731.34
2023-01-19T04:04:18.174Z,100742.91
2023-01-19T04:05:20.964Z,100734.09
2023-01-19T04:06:24.690Z,100734.31
2023-01-19T04:07:28.627Z,100730.13
2023-01-19T04:08:32.843Z,100736.91
2023-01-19T04:09:36.576Z,100739.09
2023-01-19T04:10:40.358Z,100738.91
2023-01-19T04:11:44.245Z,100749.06
2023-01-19T04:12:48.881Z,100742.88
2023-01-19T04:13:52.351Z,100741.88
2023-01-19T04:14:54.810Z,100741.69
2023-01-19T04:16:01.561Z,100742.06
2023-01-19T04:17:03.969Z,100739.69
2023-01-19T04:18:07.914Z,100746.25
2023-01-19T04:19:11.590Z,100751.25
2023-01-19T04:20:15.040Z,100743.69
2023-01-19T04:21:18.046Z,100739.91
2023-01-19T04:22:21.907Z,100735.50
2023-01-19T04:23:25.525Z,100740.09
2023-01-19T04:24:29.305Z,100731.31
2023-01-19T04:25:31.876Z,100742.09
2023-01-19T04:26:35.155Z,100748.88
2023-01-19T04:27:37.796Z,100738.09
2023-01-19T04:28:43.718Z,100739.69
2023-01-19T04:29:47.229Z,100729.31
2023-01-19T04:30:52.238Z,100748.84
2023-01-19T04:31:54.606Z,100747.47
2023-01-19T04:33:00.454Z,100755.84
2023-01-19T04:34:04.138Z,100751.66
2023-01-19T04:35:07.951Z,100754.03
2023-01-19T04:36:10.825Z,100750.84
2023-01-19T04:37:14.477Z,100758.44
2023-01-19T04:38:17.884Z,100757.22
2023-01-19T04:39:21.441Z,100759.41
2023-01-19T04:40:23.764Z,100765.00
2023-01-19T04:41:27.674Z,100756.81
2023-01-19T04:42:32.418Z,100744.66
2023-01-19T04:43:37.082Z,100748.47
2023-01-19T04:44:40.971Z,100743.69
2023-01-19T04:45:45.302Z,100746.47
2023-01-19T04:46:48.482Z,100744.69
2023-01-19T04:47:52.634Z,100737.72
2023-01-19T04:48:55.115Z,100740.09
2023-01-19T04:49:59.644Z,100745.28
2023-01-19T04:51:02.069Z,100743.31
2023-01-19T04:52:06.297Z,100736.94
2023-01-19T04:53:09.183Z,100739.09
2023-01-19T04:54:13.149Z,100746.72
2023-01-19T04:55:16.227Z,100748.91
2023-01-19T04:56:19.857Z,100748.28
2023-01-19T04:57:22.827Z,100748.91
2023-01-19T04:58:26.396Z,100758.25
2023-01-19T04:59:28.841Z,100760.84
2023-01-19T05:00:33.868Z,100761.25
2023-01-19T05:01:36.991Z,100755.44
2023-01-19T05:02:42.808Z,100756.47
2023-01-19T05:03:46.234Z,100757.84
2023-01-19T05:04:48.883Z,100757.25
2023-01-19T05:05:53.040Z,100759.25
2023-01-19T05:06:58.331Z,100750.28
2023-01-19T05:08:02.022Z,100756.88
2023-01-19T05:09:07.920Z,100739.91
2023-01-19T05:10:13.033Z,100739.72
2023-01-19T05:11:15.677Z,100732.91
2023-01-19T05:12:19.373Z,100731.72
2023-01-19T05:13:21.668Z,100733.34
2023-01-19T05:14:25.072Z,100738.28
2023-01-19T05:15:27.941Z,100735.84
2023-01-19T05:16:32.776Z,100732.69
2023-01-19T05:17:36.082Z,100726.91
2023-01-19T05:18:39.407Z,100728.91
2023-01-19T05:19:41.823Z,100740.84
2023-01-19T05:20:45.187Z,100741.06
2023-01-19T05:21:47.517Z,100751.84
2023-01-19T05:22:51.726Z,100752.66
2023-01-19T05:23:54.668Z,100756.84
2023-01-19T05:24:58.755Z,100770.19
2023-01-19T05:26:02.127Z,100767.56
2023-01-19T05:27:05.537Z,100768.00
2023-01-19T05:28:07.905Z,100761.59
2023-01-19T05:29:11.558Z,100762.41
2023-01-19T05:30:15.064Z,100761.03
2023-01-19T05:31:19.585Z,100752.47
2023-01-19T05:32:23.621Z,100758.03
2023-01-19T05:33:27.822Z,100764.44
2023-01-19T05:34:30.397Z,100763.03
2023-01-19T05:35:36.246Z,100764.22
2023-01-19T05:36:39.223Z,100774.00
2023-01-19T05:37:42.938Z,100769.22
2023-01-19T05:38:45.281Z,100766.97
2023-01-19T05:39:48.602Z,100765.81
2023-01-19T05:40:56.461Z,100770.78
2023-01-19T05:41:59.676Z,100756.44
2023-01-19T05:43:04.666Z,100753.19
2023-01-19T05:44:08.378Z,100746.44
2023-01-19T05:45:12.559Z,100743.69
2023-01-19T05:46:16.091Z,100746.66
2023-01-19T05:47:18.298Z,100740.09
2023-01-19T05:48:22.954Z,100737.09
2023-01-19T05:49:25.365Z,100740.28
2023-01-19T05:50:28.749Z,100743.28
2023-01-19T05:51:35.194Z,100736.91
2023-01-19T05:52:38.479Z,100745.25
2023-01-19T05:53:40.782Z,100732.16
2023-01-19T05:54:44.313Z,100741.31
2023-01-19T05:55:46.829Z,100737.69
2023-01-19T05:56:50.023Z,100743.09
2023-01-19T05:57:52.309Z,100747.47
2023-01-19T05:58:55.876Z,100741.91
2023-01-19T05:59:59.404Z,100740.72
2023-01-19T06:01:03.354Z,100741.88
2023-01-19T06:02:07.343Z,100748.09
2023-01-19T06:03:09.595Z,100741.88
2023-01-19T06:04:14.526Z,100745.69
2023-01-19T06:05:17.471Z,100749.25
2023-01-19T06:06:21.129Z,100746.88
2023-01-19T06:07:25.301Z,100752.66
2023-01-19T06:08:29.427Z,100749.47
2023-01-19T06:09:31.710Z,100749.69
2023-01-19T06:10:35.354Z,100748.91
2023-01-19T06:11:37.732Z,100756.06
2023-01-19T06:12:41.707Z,100760.88
2023-01-19T06:13:44.127Z,100756.25
2023-01-19T06:14:47.740Z,100765.25
2023-01-19T06:15:57.190Z,100762.44
2023-01-19T06:17:00.809Z,100765.84
2023-01-19T06:18:03.233Z,100767.81
2023-01-19T06:19:06.804Z,100767.22
2023-01-19T06:20:14.092Z,100771.81
2023-01-19T06:21:17.714Z,100766.03
2023-01-19T06:22:20.821Z,100779.56
2023-01-19T06:23:23.243Z,100780.56
2023-01-19T06:24:26.553Z,100781.56
2023-01-19T06:25:28.758Z,100787.75
2023-01-19T06:26:32.170Z,100785.75
2023-01-19T06:27:34.455Z,100796.75
2023-01-19T06:28:37.767Z,100796.72
2023-01-19T06:29:40.210Z,100800.13
2023-01-19T06:30:43.533Z,100804.72
2023-01-19T06:31:45.898Z,100797.53
2023-01-19T06:32:49.310Z,100806.31
2023-01-19T06:33:52.591Z,100796.56
2023-01-19T06:34:56.121Z,100803.13
2023-01-19T06:35:59.855Z,100798.72
2023-01-19T06:37:03.969Z,100803.53
2023-01-19T06:38:06.135Z,100801.94
2023-01-19T06:39:11.050Z,100797.13
2023-01-19T06:40:14.519Z,100799.13
2023-01-19T06:41:17.918Z,100794.34
2023-01-19T06:42:20.408Z,100801.16
2023-01-19T06:43:24.164Z,100801.94
2023-01-19T06:44:26.389Z,100803.53
2023-01-19T06:45:29.609Z,100812.50
2023-01-19T06:46:32.396Z,100811.50
2023-01-19T06:47:35.939Z,100817.28
2023-01-19T06:48:39.181Z,100816.69
2023-01-19T06:49:41.817Z,100822.47
2023-01-19T06:50:46.435Z,100818.47
2023-01-19T06:51:51.115Z,100818.47
2023-01-19T06:52:53.851Z,100813.50
2023-01-19T06:53:57.459Z,100829.84
2023-01-19T06:55:00.780Z,100827.66
2023-01-19T06:56:04.862Z,100830.25
2023-01-19T06:57:08.686Z,100829.25
2023-01-19T06:58:11.438Z,100826.25
2023-01-19T06:59:14.629Z,100832.66
2023-01-19T07:00:17.954Z,100831.47
2023-01-19T07:01:21.452Z,100827.06
2023-01-19T07:02:27.770Z,100831.84
2023-01-19T07:03:31.746Z,100831.44
2023-01-19T07:04:35.116Z,100829.81
2023-01-19T07:05:37.788Z,100833.00
2023-01-19T07:06:41.674Z,100827.22
2023-01-19T07:07:45.577Z,100835.63
2023-01-19T07:08:48.841Z,100826.84
2023-01-19T07:09:53.856Z,100831.44
2023-01-19T07:11:24.689Z,100838.22
2023-01-19T07:12:24.913Z,100833.00
2023-01-19T07:13:28.646Z,100829.03
2023-01-19T07:14:34.037Z,100831.03
2023-01-19T07:15:37.764Z,100833.00
2023-01-19T07:16:41.635Z,100835.78
2023-01-19T07:17:45.228Z,100840.19
2023-01-19T07:18:48.620Z,100837.03
2023-01-19T07:19:52.123Z,100844.41
2023-01-19T07:20:55.353Z,100841.16
2023-01-19T07:21:59.370Z,100844.00
2023-01-19T07:23:03.828Z,100851.78
2023-01-19T07:24:07.987Z,100853.56
2023-01-19T07:25:10.781Z,100859.16
2023-01-19T07:26:15.397Z,100854.19
2023-01-19T07:27:18.893Z,100858.19
2023-01-19T07:28:22.158Z,100856.19
2023-01-19T07:29:24.829Z,100869.16
2023-01-19T07:30:28.847Z,100864.34
2023-01-19T07:31:31.208Z,100867.34
2023-01-19T07:32:34.710Z,100867.94
2023-01-19T07:33:38.329Z,100863.56
2023-01-19T07:34:40.627Z,100869.34
2023-01-19T07:35:48.705Z,100872.16
2023-01-19T07:36:52.462Z,100865.94
2023-01-19T07:37:55.126Z,100872.34
2023-01-19T07:39:00.008Z,100877.13
2023-01-19T07:40:02.208Z,100868.53
2023-01-19T07:41:06.928Z,100871.72
2023-01-19T07:42:10.691Z,100876.09
2023-01-19T07:43:13.354Z,100876.09
2023-01-19T07:44:16.796Z,100870.50
2023-01-19T07:45:20.891Z,100873.72
2023-01-19T07:46:24.235Z,100881.50
2023-01-19T07:47:27.777Z,100880.69
2023-01-19T07:48:30.288Z,100883.47
2023-01-19T07:49:33.882Z,100875.50
2023-01-19T07:50:36.119Z,100880.84
2023-01-19T07:51:39.378Z,100877.28
2023-01-19T07:52:42.073Z,100884.66
2023-01-19T07:53:45.942Z,100889.84
2023-01-19T07:54:51.148Z,100897.66
2023-01-19T07:55:56.826Z,100893.09
2023-01-19T07:57:00.765Z,100896.06
2023-01-19T07:58:07.687Z,100900.63
2023-01-19T07:59:11.193Z,100900.22
2023-01-19T08:00:15.453Z,100898.00
2023-01-19T08:01:18.892Z,100900.56
2023-01-19T08:02:21.334Z,100902.59
2023-01-19T08:03:24.573Z,100897.97
2023-01-19T08:04:28.179Z,100897.56
2023-01-19T08:05:31.484Z,100886.78
2023-01-19T08:06:36.317Z,100892.03
2023-01-19T08:07:39.642Z,100901.47
2023-01-19T08:08:43.893Z,100904.22
2023-01-19T08:09:46.150Z,100890.22
2023-01-19T08:10:53.281Z,100890.03
2023-01-19T08:11:55.758Z,100891.19
2023-01-19T08:12:59.758Z,100899.53
2023-01-19T08:14:02.671Z,100898.56
2023-01-19T08:15:07.216Z,100902.09
2023-01-19T08:16:09.846Z,100898.69
2023-01-19T08:17:14.311Z,100896.94
2023-01-19T08:18:18.123Z,100906.16
2023-01-19T08:19:21.686Z,100901.75
2023-01-19T08:20:24.685Z,100908.88
2023-01-19T08:21:29.184Z,100908.22
2023-01-19T08:22:32.669Z,100909.00
2023-01-19T08:23:35.182Z,100915.03
2023-01-19T08:24:38.473Z,100918.44
2023-01-19T08:25:44.483Z,100918.16
2023-01-19T08:26:49.733Z,100919.56
2023-01-19T08:27:54.863Z,100919.59
2023-01-19T08:29:00.553Z,100920.31
2023-01-19T08:30:04.141Z,100918.94
2023-01-19T08:31:19.182Z,100922.28
2023-01-19T08:32:23.600Z,100924.38
2023-01-19T08:33:26.296Z,100931.31
2023-01-19T08:34:31.060Z,100925.50
2023-01-19T08:35:37.049Z,100925.44
2023-01-19T08:36:39.526Z,100930.78
2023-01-19T08:37:42.861Z,100929.34
2023-01-19T08:38:46.528Z,100943.06
2023-01-19T08:39:50.009Z,100938.09
2023-01-19T08:40:52.200Z,100949.81
2023-01-19T08:41:57.048Z,100948.88
2023-01-19T08:43:03.731Z,100960.25
2023-01-19T08:44:07.066Z,100953.13
2023-01-19T08:45:10.187Z,100962.81
2023-01-19T08:46:17.037Z,100968.38
2023-01-19T08:47:20.930Z,100961.91
2023-01-19T08:48:23.927Z,100972.25
2023-01-19T08:49:27.094Z,100963.50
2023-01-19T08:50:31.219Z,100960.19
2023-01-19T08:51:34.799Z,100962.81
2023-01-19T08:52:38.227Z,100965.09
2023-01-19T08:53:41.721Z,100959.66
2023-01-19T08:54:44.875Z,100958.63
2023-01-19T08:55:47.275Z,100958.72
2023-01-19T08:56:50.561Z,100956.75
2023-01-19T08:57:55.334Z,100961.34
2023-01-19T09:00:22.179Z,100966.00
2023-01-19T09:01:25.626Z,100962.69
2023-01-19T09:02:29.809Z,100965.41
2023-01-19T09:03:32.174Z,100962.47
2023-01-19T09:04:35.618Z,100964.97
2023-01-19T09:05:39.519Z,100965.78
2023-01-19T09:06:42.791Z,100964.63
2023-01-19T09:07:48.076Z,100962.69
2023-01-19T09:08:51.586Z,100967.38
2023-01-19T09:09:54.237Z,100963.69
2023-01-19T09:10:57.662Z,100968.00
2023-01-19T09:12:01.082Z,100975.19
2023-01-19T09:13:07.141Z,100978.84
2023-01-19T09:14:10.478Z,100982.56
2023-01-19T09:15:14.076Z,100985.94
2023-01-19T09:16:17.704Z,100991.66
2023-01-19T09:17:20.061Z,100988.41
2023-01-19T09:18:24.104Z,100989.38
2023-01-19T09:19:26.556Z,100988.50
2023-01-19T09:20:31.418Z,100989.09
2023-01-19T09:21:34.746Z,100989.16
2023-01-19T09:22:37.309Z,101000.06
2023-01-19T09:23:40.908Z,100995.22
2023-01-19T09:24:44.414Z,100993.78
2023-01-19T09:25:49.326Z,100995.47
2023-01-19T09:26:52.819Z,100996.81
2023-01-19T09:27:56.242Z,101002.84
2023-01-19T09:29:00.989Z,100999.50
2023-01-19T09:30:04.334Z,101010.72
2023-01-19T09:31:08.802Z,101003.66
2023-01-19T09:32:12.131Z,100996.97
2023-01-19T09:33:17.647Z,101003.28
2023-01-19T09:34:22.795Z,101001.16
2023-01-19T09:35:25.150Z,101007.16
2023-01-19T09:36:30.198Z,101014.44
2023-01-19T09:37:32.874Z,101014.09
2023-01-19T09:38:36.137Z,101012.13
2023-01-19T09:39:38.496Z,101017.88
2023-01-19T09:40:44.235Z,101013.13
2023-01-19T09:41:52.581Z,101025.28
2023-01-19T09:42:57.571Z,101014.50
2023-01-19T09:44:02.601Z,101022.84
2023-01-19T09:45:12.205Z,101014.63
2023-01-19T09:46:20.663Z,101017.59
2023-01-19T09:47:28.744Z,101028.28
2023-01-19T09:48:40.546Z,101028.25
2023-01-19T09:49:48.730Z,101023.06
2023-01-19T09:50:52.371Z,101031.22
2023-01-19T09:51:56.213Z,101030.50
2023-01-19T09:53:05.279Z,101026.00
2023-01-19T09:54:14.915Z,101027.38
2023-01-19T09:55:21.964Z,101020.94
2023-01-19T09:56:25.995Z,101025.22
2023-01-19T09:57:30.115Z,101028.59
2023-01-19T09:58:33.824Z,101029.59
2023-01-19T09:59:39.059Z,101032.09
2023-01-19T10:00:44.669Z,101026.63
2023-01-19T10:01:58.461Z,101024.75
2023-01-19T10:03:13.982Z,101019.00
2023-01-19T10:04:33.369Z,101019.25
2023-01-19T10:05:44.899Z,101017.44
2023-01-19T10:06:48.659Z,101020.84
2023-01-19T10:08:08.697Z,101034.91
2023-01-19T10:09:22.520Z,101026.53
2023-01-19T10:10:28.478Z,101028.75
2023-01-19T10:11:51.550Z,101030.91
2023-01-19T10:13:06.427Z,101029.28
2023-01-19T10:14:16.384Z,101030.00
2023-01-19T10:15:33.311Z,101024.84
2023-01-19T10:16:47.100Z,101018.31
2023-01-19T10:18:02.155Z,101023.19
2023-01-19T10:19:21.942Z,101030.13
2023-01-19T10:20:34.399Z,101019.84
2023-01-19T10:21:43.175Z,101022.25
2023-01-19T10:22:50.216Z,101028.31
2023-01-19T10:23:56.756Z,101026.47
2023-01-19T10:25:06.032Z,101025.34
2023-01-19T10:26:18.723Z,101029.81
2023-01-19T10:27:24.810Z,101024.03
2023-01-19T10:28:29.284Z,101029.69
2023-01-19T10:29:36.427Z,101017.63
2023-01-19T10:30:44.097Z,101020.63
2023-01-19T10:31:49.555Z,101022.38
2023-01-19T10:32:52.921Z,101026.19
2023-01-19T10:33:56.249Z,101024.88
2023-01-19T10:34:59.918Z,101036.16
2023-01-19T10:36:06.611Z,101015.94
2023-01-19T10:37:22.240Z,101025.44
2023-01-19T10:38:28.061Z,101018.19
2023-01-19T10:39:34.038Z,101010.13
2023-01-19T10:40:49.704Z,101024.25
2023-01-19T10:41:55.035Z,101018.94
2023-01-19T10:42:58.148Z,101016.13
2023-01-19T10:44:04.049Z,101024.19
2023-01-19T10:45:16.511Z,101013.72
2023-01-19T10:46:38.819Z,101005.25
2023-01-19T10:47:42.948Z,101011.06
2023-01-19T10:48:49.540Z,100995.97
2023-01-19T10:49:53.075Z,101005.56
2023-01-19T10:51:03.842Z,100994.53
2023-01-19T10:52:09.295Z,100992.31
2023-01-19T10:53:22.579Z,100993.84
2023-01-19T10:54:29.020Z,100995.91
2023-01-19T10:55:33.078Z,100997.75
2023-01-19T10:56:38.544Z,101000.53
2023-01-19T10:57:43.579Z,100996.25
2023-01-19T10:58:46.877Z,100991.81
2023-01-19T10:59:51.746Z,100995.16
2023-01-19T11:00:54.250Z,100998.34
2023-01-19T11:02:17.309Z,101001.91
2023-01-19T11:03:25.541Z,101004.88
2023-01-19T11:04:30.456Z,100985.66
2023-01-19T11:05:35.502Z,100989.59
2023-01-19T11:06:38.031Z,100979.00
2023-01-19T11:07:41.265Z,100982.22
2023-01-19T11:08:45.380Z,100976.63
2023-01-19T11:09:50.191Z,100967.41
2023-01-19T11:10:57.632Z,100974.72
2023-01-19T11:12:00.204Z,100956.97
2023-01-19T11:13:07.735Z,100964.84
2023-01-19T11:14:14.255Z,100956.28
2023-01-19T11:15:22.845Z,100957.56
2023-01-19T11:16:27.787Z,100951.06
2023-01-19T11:17:32.567Z,100962.50
2023-01-19T11:18:37.791Z,100954.09
2023-01-19T11:19:41.351Z,100948.91
2023-01-19T11:20:51.973Z,100942.91
2023-01-19T11:22:10.874Z,100943.44
2023-01-19T11:23:24.443Z,100935.72
2023-01-19T11:24:27.800Z,100936.19
2023-01-19T11:25:33.446Z,100931.50
2023-01-19T11:26:50.458Z,100928.00
2023-01-19T11:27:53.398Z,100931.25
2023-01-19T11:28:59.032Z,100924.38
2023-01-19T11:30:10.537Z,100925.41
2023-01-19T11:31:31.643Z,100930.72
2023-01-19T11:32:37.675Z,100931.44
2023-01-19T11:33:44.349Z,100930.69
2023-01-19T11:34:47.733Z,100928.84
2023-01-19T11:35:51.715Z,100922.53
2023-01-19T11:37:01.963Z,100919.63
2023-01-19T11:38:20.263Z,100913.34
2023-01-19T11:39:26.611Z,100906.69
2023-01-19T11:40:30.852Z,100909.41
2023-01-19T11:41:37.617Z,100910.34
2023-01-19T11:42:40.498Z,100899.28
2023-01-19T11:43:49.208Z,100915.19
2023-01-19T11:45:01.289Z,100903.53
2023-01-19T11:46:05.393Z,100895.72
2023-01-19T11:47:19.871Z,100904.97
2023-01-19T11:48:33.957Z,100892.81
2023-01-19T11:49:44.949Z,100882.13
2023-01-19T11:50:49.771Z,100888.91
2023-01-19T11:52:01.079Z,100884.38
2023-01-19T11:53:12.108Z,100880.19
2023-01-19T11:54:21.287Z,100878.81
2023-01-19T11:55:32.603Z,100875.56
2023-01-19T11:56:36.649Z,100879.47
2023-01-19T11:57:46.453Z,100874.56
2023-01-19T11:58:50.045Z,100870.88
2023-01-19T11:59:54.826Z,100867.81
2023-01-19T12:01:03.193Z,100870.03
2023-01-19T12:02:17.820Z,100868.28
2023-01-19T12:03:26.347Z,100858.63
2023-01-19T12:04:34.687Z,100862.19
2023-01-19T12:05:45.288Z,100863.72
2023-01-19T12:06:54.359Z,100857.78
2023-01-19T12:08:05.505Z,100846.19
2023-01-19T12:09:19.605Z,100845.50
2023-01-19T12:10:28.249Z,100832.69
2023-01-19T12:11:35.820Z,100839.22
2023-01-19T12:12:41.086Z,100837.56
2023-01-19T12:13:46.755Z,100836.03
2023-01-19T12:14:56.549Z,100826.47
2023-01-19T12:16:04.381Z,100833.03
2023-01-19T12:17:15.226Z,100834.47
2023-01-19T12:18:22.392Z,100829.63
2023-01-19T12:19:30.596Z,100831.59
2023-01-19T12:20:39.790Z,100831.16
2023-01-19T12:21:45.568Z,100831.13
2023-01-19T12:22:55.193Z,100826.47
2023-01-19T12:24:11.603Z,100836.31
2023-01-19T12:25:23.553Z,100823.72
2023-01-19T12:26:32.100Z,100818.53
2023-01-19T12:27:41.264Z,100825.19
2023-01-19T12:28:48.377Z,100830.66
2023-01-19T12:29:52.249Z,100819.75
2023-01-19T12:30:55.800Z,100817.63